Time;durP1;ratioP1;P1;durP2;ratioP2;P2;SDS_P1;SDS_P2;PMS_P1;PMS_P2;Temp;Humidity;BMP_temperature;BMP_pressure;BME280_temperature;BME280_humidity;BME280_pressure;Samples;Min_cycle;Max_cycle;Signal;HPM_P1;HPM_P2
2021/07/22 00:00:03;;;;;;;7.00;5.55;;;;;;;15.32;93.47;94841.00;1601230;89;21086;-54
2021/07/22 00:02:31;;;;;;;5.87;4.65;;;;;;;15.33;93.40;94841.89;1608100;89;21091;-54
2021/07/22 00:04:57;;;;;;;10.38;5.00;;;;;;;15.34;93.46;94842.04;1603004;88;21043;-53
2021/07/22 00:07:24;;;;;;;6.92;4.15;;;;;;;15.34;93.08;94844.06;1606933;89;21966;-54
2021/07/22 00:09:51;;;;;;;10.55;5.10;;;;;;;15.32;93.28;94847.93;1609121;87;21110;-54
2021/07/22 00:12:18;;;;;;;5.03;4.53;;;;;;;15.33;93.28;94848.83;1584772;89;21122;-54
2021/07/22 00:14:45;;;;;;;5.12;4.17;;;;;;;15.32;93.44;94844.52;1608168;89;21011;-54
2021/07/22 00:17:11;;;;;;;14.35;4.28;;;;;;;15.31;93.50;94844.38;1605650;88;21090;-54
2021/07/22 00:19:38;;;;;;;8.15;4.20;;;;;;;15.31;93.56;94844.38;1599791;89;21527;-53
2021/07/22 00:22:05;;;;;;;5.10;4.45;;;;;;;15.32;93.53;94847.93;1611194;89;21582;-53
2021/07/22 00:24:34;;;;;;;5.08;4.12;;;;;;;15.34;93.49;94848.22;1609056;87;21070;-53
2021/07/22 00:27:00;;;;;;;6.90;4.45;;;;;;;15.35;93.69;94849.11;1577594;89;21046;-54
2021/07/22 00:29:30;;;;;;;9.30;5.22;;;;;;;15.34;93.50;94846.83;1601247;89;21138;-54
2021/07/22 00:31:57;;;;;;;7.55;4.58;;;;;;;15.31;93.58;94842.21;1610147;87;21134;-52
2021/07/22 00:34:24;;;;;;;6.00;4.55;;;;;;;15.28;93.52;94845.30;1609795;88;21532;-53
2021/07/22 00:36:51;;;;;;;6.60;4.22;;;;;;;15.28;93.77;94846.69;1621228;87;21526;-52
2021/07/22 00:39:18;;;;;;;7.40;4.45;;;;;;;15.30;93.95;94839.30;1608902;89;21070;-52
2021/07/22 00:41:47;;;;;;;9.75;5.08;;;;;;;15.30;94.00;94844.23;1611467;87;21467;-53
2021/07/22 00:44:14;;;;;;;8.00;4.53;;;;;;;15.29;93.85;94844.09;1624372;87;21053;-53
2021/07/22 00:46:43;;;;;;;5.85;4.90;;;;;;;15.31;93.90;94842.98;1606116;89;20994;-54
2021/07/22 00:49:11;;;;;;;17.90;5.80;;;;;;;15.34;93.73;94846.83;1611235;87;21034;-54
2021/07/22 00:51:40;;;;;;;5.90;4.80;;;;;;;15.34;93.69;94847.58;1607140;89;21086;-53
2021/07/22 00:54:09;;;;;;;11.20;4.72;;;;;;;15.40;93.80;94847.70;1581228;89;21156;-53
2021/07/22 00:56:37;;;;;;;9.28;4.87;;;;;;;15.42;93.53;94845.98;1603425;89;21994;-54
2021/07/22 00:59:05;;;;;;;5.45;4.87;;;;;;;15.45;93.36;94843.64;1608376;87;21460;-54
2021/07/22 01:01:34;;;;;;;7.37;5.15;;;;;;;15.50;93.15;94851.90;1604658;88;21088;-53
2021/07/22 01:04:00;;;;;;;8.40;5.45;;;;;;;15.50;93.16;94838.81;1609638;87;21055;-54
2021/07/22 01:06:28;;;;;;;7.60;4.95;;;;;;;15.51;92.88;94845.89;1611193;89;21070;-54
2021/07/22 01:08:55;;;;;;;9.03;4.78;;;;;;;15.51;92.90;94851.44;1611284;89;21198;-53
2021/07/22 01:11:24;;;;;;;5.33;4.53;;;;;;;15.52;92.79;94852.97;1611247;88;21066;-53
2021/07/22 01:13:51;;;;;;;7.75;4.60;;;;;;;15.51;92.53;94850.05;1609287;89;21030;-53
2021/07/22 01:16:18;;;;;;;5.70;4.72;;;;;;;15.51;92.53;94846.53;1609320;87;21082;-54
2021/07/22 01:18:48;;;;;;;7.42;4.97;;;;;;;15.47;92.27;94849.48;1610285;89;21042;-53
2021/07/22 01:21:15;;;;;;;8.10;5.03;;;;;;;15.47;92.30;94846.70;1601997;88;21105;-53
2021/07/22 01:23:42;;;;;;;8.63;5.37;;;;;;;15.46;91.99;94841.02;1607283;89;21047;-52
2021/07/22 01:26:11;;;;;;;9.18;5.37;;;;;;;15.46;91.90;94840.23;1607754;87;21493;-54
2021/07/22 01:28:38;;;;;;;8.78;5.05;;;;;;;15.46;91.83;94841.63;1609075;88;21030;-53
2021/07/22 01:31:05;;;;;;;6.60;5.45;;;;;;;15.46;91.68;94841.02;1609399;88;21015;-53
2021/07/22 01:33:32;;;;;;;7.35;4.78;;;;;;;15.43;91.63;94844.74;1611267;89;21111;-54
2021/07/22 01:35:58;;;;;;;7.47;5.05;;;;;;;15.43;91.62;94843.97;1608813;89;21015;-55
2021/07/22 01:38:25;;;;;;;5.80;5.05;;;;;;;15.43;91.65;94844.74;1611051;87;21094;-54
2021/07/22 01:40:52;;;;;;;10.40;5.47;;;;;;;15.43;91.49;94848.13;1601049;88;21594;-54
2021/07/22 01:43:20;;;;;;;4.90;4.40;;;;;;;15.40;91.55;94845.67;1606698;89;21622;-53
2021/07/22 01:45:50;;;;;;;7.22;4.70;;;;;;;15.41;91.52;94847.23;1607167;87;22000;-53
2021/07/22 01:48:18;;;;;;;5.87;4.75;;;;;;;15.40;91.09;94846.31;1607899;89;21086;-54
2021/07/22 01:50:47;;;;;;;7.37;5.35;;;;;;;15.41;91.10;94851.39;1608733;89;21279;-54
2021/07/22 01:53:14;;;;;;;11.10;5.53;;;;;;;15.42;91.12;94847.38;1608869;89;21049;-54
2021/07/22 01:55:40;;;;;;;9.08;5.78;;;;;;;15.45;91.25;94838.09;1604925;88;21574;-53
2021/07/22 01:58:07;;;;;;;7.03;4.80;;;;;;;15.48;91.10;94844.08;1606787;89;21131;-53
2021/07/22 02:00:36;;;;;;;6.83;5.40;;;;;;;15.51;91.09;94845.14;1602020;87;21003;-53
2021/07/22 02:03:05;;;;;;;7.55;5.58;;;;;;;15.52;91.02;94844.65;1606828;89;21060;-53
2021/07/22 02:05:40;;;;;;;9.68;5.40;;;;;;;15.53;90.90;94848.95;1613273;88;21569;-53
2021/07/22 02:08:07;;;;;;;7.90;5.60;;;;;;;15.52;90.92;94843.27;1611282;87;21114;-52
2021/07/22 02:10:35;;;;;;;7.72;4.67;;;;;;;15.53;91.04;94844.80;1611097;87;22019;-52
2021/07/22 02:13:03;;;;;;;7.53;5.17;;;;;;;15.55;90.83;94847.09;1608826;88;21606;-51
2021/07/22 02:15:35;;;;;;;10.60;6.05;;;;;;;15.57;90.98;94837.05;1609940;87;20996;-52
2021/07/22 02:18:03;;;;;;;10.38;6.40;;;;;;;15.63;90.87;94844.08;1560764;89;21048;-52
2021/07/22 02:20:30;;;;;;;12.37;6.60;;;;;;;15.62;90.75;94843.33;1607474;88;21147;-52
2021/07/22 02:22:57;;;;;;;6.45;5.20;;;;;;;15.64;90.74;94841.45;1604673;89;21818;-53
2021/07/22 02:25:31;;;;;;;9.35;5.35;;;;;;;15.64;90.60;94842.84;1605695;87;21066;-53
2021/07/22 02:27:59;;;;;;;12.13;5.50;;;;;;;15.62;90.52;94846.11;1623881;86;21074;-52
2021/07/22 02:30:28;;;;;;;10.28;6.70;;;;;;;15.64;90.53;94847.00;1605731;88;21098;-54
2021/07/22 02:32:57;;;;;;;15.05;5.50;;;;;;;15.66;90.49;94850.84;1602586;88;21491;-53
2021/07/22 02:35:24;;;;;;;16.40;5.90;;;;;;;15.68;90.29;94846.96;1618734;88;21127;-53
2021/07/22 02:38:09;;;;;;;7.03;5.17;;;;;;;15.68;90.18;94850.34;1606640;89;21110;-54
2021/07/22 02:40:35;;;;;;;7.22;5.72;;;;;;;15.67;90.20;94850.98;1603400;87;21475;-54
2021/07/22 02:43:03;;;;;;;9.48;6.00;;;;;;;15.64;90.26;94848.38;1603370;89;21491;-54
2021/07/22 02:45:30;;;;;;;6.83;5.28;;;;;;;15.59;90.07;94855.38;1608098;89;21054;-54
2021/07/22 02:47:58;;;;;;;9.45;5.12;;;;;;;15.53;90.21;94862.06;1607164;89;21573;-53
2021/07/22 02:50:25;;;;;;;6.55;4.60;;;;;;;15.50;90.47;94865.16;1611492;88;21500;-53
2021/07/22 02:52:54;;;;;;;7.10;5.58;;;;;;;15.43;90.29;94878.02;1605060;87;21232;-54
2021/07/22 02:55:20;;;;;;;6.35;5.75;;;;;;;15.37;90.59;94870.19;1581752;87;21613;-54
2021/07/22 02:57:47;;;;;;;7.42;5.37;;;;;;;15.32;90.94;94867.33;1609111;89;21054;-54
2021/07/22 03:00:16;;;;;;;10.40;6.70;;;;;;;15.30;91.20;94867.80;1609044;88;21140;-53
2021/07/22 03:02:43;;;;;;;8.13;6.17;;;;;;;15.30;91.33;94874.73;1605648;88;20995;-54
2021/07/22 03:05:10;;;;;;;7.08;5.72;;;;;;;15.30;91.33;94871.17;1602268;89;21099;-54
2021/07/22 03:07:39;;;;;;;14.15;6.00;;;;;;;15.31;91.46;94883.19;1608972;88;21518;-54
2021/07/22 03:10:07;;;;;;;7.37;5.92;;;;;;;15.33;91.49;94883.48;1606705;87;20998;-52
2021/07/22 03:12:34;;;;;;;9.88;5.28;;;;;;;15.37;91.24;94881.91;1605605;88;21662;-54
2021/07/22 03:15:02;;;;;;;9.18;5.10;;;;;;;15.35;91.03;94884.40;1608904;89;21022;-53
2021/07/22 03:17:29;;;;;;;13.70;5.72;;;;;;;15.34;91.16;94890.55;1611153;89;21019;-57
2021/07/22 03:19:57;;;;;;;6.70;5.72;;;;;;;15.34;91.22;94889.16;1606986;87;21069;-57
2021/07/22 03:22:26;;;;;;;10.75;5.20;;;;;;;15.34;90.95;94890.55;1609499;87;21487;-58
2021/07/22 03:24:55;;;;;;;10.80;5.42;;;;;;;15.34;90.89;94889.16;1604452;88;21860;-58
2021/07/22 03:27:26;;;;;;;11.43;5.85;;;;;;;15.35;90.79;94893.47;1597448;89;20982;-64
2021/07/22 03:29:53;;;;;;;11.15;6.78;;;;;;;15.37;90.88;94890.23;1609292;89;21014;-56
2021/07/22 03:32:20;;;;;;;12.03;6.12;;;;;;;15.37;91.06;94886.83;1608977;88;21061;-55
2021/07/22 03:34:48;;;;;;;9.00;5.03;;;;;;;15.43;91.35;94892.48;1605024;89;21155;-56
2021/07/22 03:37:17;;;;;;;5.70;4.60;;;;;;;15.45;91.29;94888.01;1607826;87;21160;-55
2021/07/22 03:39:44;;;;;;;12.63;5.25;;;;;;;15.49;91.31;94889.19;1604148;89;21003;-55
2021/07/22 03:42:12;;;;;;;7.65;5.62;;;;;;;15.54;91.48;94892.08;1607672;87;21022;-54
2021/07/22 03:44:57;;;;;;;11.50;6.08;;;;;;;15.61;91.15;94891.72;1608521;89;21047;-54
2021/07/22 03:47:26;;;;;;;8.48;5.75;;;;;;;15.66;91.07;94890.28;1625274;87;21019;-55
2021/07/22 03:49:54;;;;;;;7.35;5.42;;;;;;;15.69;90.85;94894.27;1626059;87;21141;-54
2021/07/22 03:52:22;;;;;;;7.97;5.70;;;;;;;15.74;90.56;94897.00;1609143;87;21010;-53
2021/07/22 03:54:51;;;;;;;9.28;5.33;;;;;;;15.74;90.00;94893.59;1609264;87;21078;-54
2021/07/22 03:57:18;;;;;;;7.97;5.33;;;;;;;15.74;89.72;94897.75;1609136;88;21601;-54
2021/07/22 03:59:46;;;;;;;7.83;5.33;;;;;;;15.73;89.34;94895.47;1606156;87;21215;-55
2021/07/22 04:02:13;;;;;;;10.23;6.50;;;;;;;15.73;89.24;94900.38;1601377;89;21252;-59
2021/07/22 04:04:42;;;;;;;31.45;21.02;;;;;;;15.72;88.85;94900.23;1606699;87;21081;-54
2021/07/22 04:07:09;;;;;;;14.70;9.90;;;;;;;15.74;88.89;94899.14;1603059;89;21094;-54
2021/07/22 04:09:53;;;;;;;26.90;23.12;;;;;;;15.78;89.03;94895.58;1610883;88;21562;-55
2021/07/22 04:12:39;;;;;;;48.50;35.35;;;;;;;15.86;88.76;94895.94;1604437;87;22387;-55
2021/07/22 04:15:09;;;;;;;30.60;22.70;;;;;;;15.92;88.79;94894.80;1606858;88;21084;-54
2021/07/22 04:17:45;;;;;;;30.02;23.10;;;;;;;16.00;88.46;94894.58;1606529;87;21011;-56
2021/07/22 04:20:29;;;;;;;29.23;21.02;;;;;;;16.07;88.09;94888.64;1593518;89;21058;-56
2021/07/22 04:23:16;;;;;;;23.55;16.62;;;;;;;16.13;87.60;94902.62;1590295;89;21191;-54
2021/07/22 04:25:48;;;;;;;13.55;10.98;;;;;;;16.15;87.25;94895.96;1591485;88;21004;-57
2021/07/22 04:28:26;;;;;;;8.40;7.03;;;;;;;16.18;87.17;94890.83;1611035;87;21179;-56
2021/07/22 04:30:53;;;;;;;10.18;6.47;;;;;;;16.21;87.02;94887.09;1624036;87;21567;-55
2021/07/22 04:33:25;;;;;;;;;;;;;;;16.23;86.78;94890.94;1602079;89;21483;-55
2021/07/22 04:36:06;;;;;;;10.00;8.08;;;;;;;16.26;86.90;94898.30;1599104;89;20179;-56
2021/07/22 04:38:49;;;;;;;9.58;7.58;;;;;;;16.24;86.95;94892.46;1613687;88;21046;-54
2021/07/22 04:41:25;;;;;;;10.32;7.50;;;;;;;16.25;86.69;94880.75;1609756;86;21160;-55
2021/07/22 04:43:54;;;;;;;24.65;8.90;;;;;;;16.24;86.72;94885.52;1600553;87;21057;-54
2021/07/22 04:46:22;;;;;;;16.67;12.37;;;;;;;16.27;86.73;94881.78;1613690;88;21015;-54
2021/07/22 04:48:52;;;;;;;14.93;8.40;;;;;;;16.28;86.68;94878.53;1608607;86;21074;-54
2021/07/22 04:51:36;;;;;;;13.28;7.50;;;;;;;16.35;86.39;94882.97;1609251;87;21006;-55
2021/07/22 04:54:05;;;;;;;14.60;8.45;;;;;;;16.35;86.26;94878.80;1602123;88;21083;-56
2021/07/22 04:56:33;;;;;;;21.02;10.40;;;;;;;16.37;86.07;94878.45;1599742;89;37391;-55
2021/07/22 04:59:00;;;;;;;15.85;8.80;;;;;;;16.41;85.70;94875.48;1605596;87;21109;-55
2021/07/22 05:01:29;;;;;;;14.40;7.83;;;;;;;16.43;85.29;94876.55;1604883;88;21092;-57
2021/07/22 05:03:55;;;;;;;15.05;7.75;;;;;;;16.47;85.03;94873.55;1607185;88;20998;-55
2021/07/22 05:06:25;;;;;;;14.60;7.95;;;;;;;16.48;84.71;94873.08;1603611;88;21346;-57
2021/07/22 05:09:10;;;;;;;23.20;11.65;;;;;;;16.55;84.26;94873.30;1609192;88;21051;-59
2021/07/22 05:11:46;;;;;;;15.60;9.30;;;;;;;16.61;83.90;94874.14;1600292;88;21032;-54
2021/07/22 05:14:14;;;;;;;13.55;7.90;;;;;;;16.64;83.62;94875.34;1590034;88;21492;-54
2021/07/22 05:16:54;;;;;;;14.73;8.55;;;;;;;16.67;83.25;94869.42;1600973;88;21032;-55
2021/07/22 05:19:39;;;;;;;12.23;7.30;;;;;;;16.68;82.81;94870.95;1597273;89;21183;-55
2021/07/22 05:22:08;;;;;;;12.07;7.65;;;;;;;16.69;82.68;94872.52;1607475;88;21216;-55
2021/07/22 05:24:39;;;;;;;13.85;7.92;;;;;;;16.72;82.49;94870.16;1611804;88;21087;-55
2021/07/22 05:27:07;;;;;;;13.45;8.80;;;;;;;16.70;82.52;94866.45;1600292;87;21056;-55
2021/07/22 05:29:40;;;;;;;17.12;10.65;;;;;;;16.70;82.90;94867.09;1604241;88;21233;-56
2021/07/22 05:32:14;;;;;;;15.20;9.45;;;;;;;16.70;82.97;94860.15;1567209;89;21164;-59
2021/07/22 05:34:45;;;;;;;15.85;10.80;;;;;;;16.71;83.09;94861.67;1600519;87;22377;-57
2021/07/22 05:37:31;;;;;;;21.50;10.82;;;;;;;16.73;83.13;94870.30;1541701;91;21117;-56
2021/07/22 05:39:59;;;;;;;21.02;12.47;;;;;;;16.77;83.01;94860.48;1522406;92;21230;-57
2021/07/22 05:42:26;;;;;;;15.18;10.28;;;;;;;16.80;82.96;94864.31;1552822;91;21102;-57
2021/07/22 05:44:53;;;;;;;18.02;10.30;;;;;;;16.83;82.49;94863.34;1567238;90;21109;-58
2021/07/22 05:47:21;;;;;;;11.60;6.60;;;;;;;16.84;81.85;94861.48;1603649;88;21534;-55
2021/07/22 05:49:48;;;;;;;8.85;6.78;;;;;;;16.87;81.13;94856.98;1602295;88;21557;-54
2021/07/22 05:52:15;;;;;;;11.33;6.80;;;;;;;16.91;80.48;94858.92;1601986;89;21152;-52
2021/07/22 05:54:42;;;;;;;12.75;7.95;;;;;;;16.92;79.67;94854.89;1612289;87;21186;-56
2021/07/22 05:57:09;;;;;;;17.50;7.83;;;;;;;16.92;79.40;94858.42;1626591;87;21112;-57
2021/07/22 05:59:36;;;;;;;11.75;6.53;;;;;;;16.96;78.79;94854.06;1621758;87;21063;-55
2021/07/22 06:02:05;;;;;;;9.85;6.10;;;;;;;17.01;78.52;94851.97;1588346;88;21098;-58
2021/07/22 06:04:32;;;;;;;17.52;10.38;;;;;;;17.07;78.18;94854.96;1557254;90;21105;-60
2021/07/22 06:07:03;;;;;;;15.85;7.90;;;;;;;17.13;77.83;94850.87;1568932;89;22306;-58
2021/07/22 06:09:30;;;;;;;9.73;6.70;;;;;;;17.19;77.55;94846.13;1581116;89;21365;-57
2021/07/22 06:11:57;;;;;;;10.43;7.35;;;;;;;17.30;76.87;94845.63;1612885;88;21074;-61
2021/07/22 06:14:26;;;;;;;10.80;6.85;;;;;;;17.42;76.60;94849.36;1601480;88;21047;-57
2021/07/22 06:16:52;;;;;;;13.53;10.45;;;;;;;17.53;76.03;94849.47;1580692;89;21095;-65
2021/07/22 06:19:19;;;;;;;16.37;10.80;;;;;;;17.59;75.28;94849.67;1589872;87;21179;-60
2021/07/22 06:21:46;;;;;;;14.63;9.08;;;;;;;17.66;74.43;94854.05;1590698;87;21124;-63
2021/07/22 06:24:14;;;;;;;18.20;10.25;;;;;;;17.71;73.83;94844.98;1576406;88;21232;-65
2021/07/22 06:26:40;;;;;;;13.43;8.63;;;;;;;17.77;74.31;94851.36;1560648;90;21122;-61
2021/07/22 06:29:07;;;;;;;11.78;7.15;;;;;;;17.84;74.41;94846.77;1616675;87;22335;-61
2021/07/22 06:31:34;;;;;;;18.70;12.05;;;;;;;17.96;73.83;94842.81;1616188;87;21139;-61
2021/07/22 06:34:00;;;;;;;15.90;9.85;;;;;;;18.07;73.40;94846.49;1609925;87;21786;-65
2021/07/22 06:36:28;;;;;;;17.82;11.22;;;;;;;18.22;73.24;94842.31;1617680;87;21034;-56
2021/07/22 06:38:56;;;;;;;11.28;8.70;;;;;;;18.36;72.84;94842.84;1619377;87;21030;-59
2021/07/22 06:41:22;;;;;;;10.60;8.18;;;;;;;18.47;72.45;94847.09;1623538;86;21057;-58
2021/07/22 06:43:50;;;;;;;16.77;10.25;;;;;;;18.51;71.88;94842.08;1617290;87;21274;-59
2021/07/22 06:46:17;;;;;;;16.20;8.88;;;;;;;18.55;71.64;94841.21;1622541;87;21116;-56
2021/07/22 06:48:45;;;;;;;14.68;6.62;;;;;;;18.58;70.03;94844.39;1618085;87;21395;-62
2021/07/22 06:51:12;;;;;;;11.93;6.45;;;;;;;18.60;69.88;94843.88;1614415;87;21104;-60
2021/07/22 06:53:42;;;;;;;12.43;8.38;;;;;;;18.58;69.52;94838.82;1618907;87;21094;-63
2021/07/22 06:56:08;;;;;;;7.37;6.08;;;;;;;18.57;70.01;94844.27;1626544;86;21555;-63
2021/07/22 06:58:35;;;;;;;8.78;6.30;;;;;;;18.55;68.56;94837.03;1617367;87;21156;-65
2021/07/22 07:01:04;;;;;;;8.30;5.22;;;;;;;18.55;68.42;94841.21;1609087;87;21053;-59
2021/07/22 07:03:31;;;;;;;10.72;6.35;;;;;;;18.58;68.15;94837.42;1615111;87;21198;-54
2021/07/22 07:05:58;;;;;;;10.55;6.47;;;;;;;18.64;68.56;94841.00;1601427;87;22055;-59
2021/07/22 07:08:25;;;;;;;10.53;6.62;;;;;;;18.75;68.83;94834.73;1620346;87;21543;-58
2021/07/22 07:10:52;;;;;;;14.28;6.87;;;;;;;18.84;68.25;94835.30;1615742;87;21159;-58
2021/07/22 07:13:19;;;;;;;11.03;6.05;;;;;;;18.97;68.12;94834.24;1620260;85;21190;-60
2021/07/22 07:15:47;;;;;;;9.43;5.70;;;;;;;19.11;67.72;94838.88;1609085;87;21057;-62
2021/07/22 07:18:14;;;;;;;7.92;4.72;;;;;;;19.23;67.22;94829.31;1618570;87;21092;-58
2021/07/22 07:20:42;;;;;;;15.78;6.33;;;;;;;19.29;66.92;94831.52;1625938;86;21154;-64
2021/07/22 07:23:09;;;;;;;9.48;5.65;;;;;;;19.34;67.34;94829.37;1610719;87;21425;-56
2021/07/22 07:25:37;;;;;;;9.78;5.70;;;;;;;19.38;66.86;94838.25;1616087;86;21105;-59
2021/07/22 07:28:04;;;;;;;10.65;5.75;;;;;;;19.40;67.13;94839.91;1620435;87;22292;-62
2021/07/22 07:30:31;;;;;;;18.57;6.45;;;;;;;19.43;67.36;94844.52;1611691;87;21072;-59
2021/07/22 07:32:59;;;;;;;15.65;6.45;;;;;;;19.46;67.74;94842.11;1607896;87;21094;-61
2021/07/22 07:35:26;;;;;;;17.37;5.87;;;;;;;19.51;67.70;94848.95;1600846;86;21074;-59
2021/07/22 07:37:53;;;;;;;18.77;6.17;;;;;;;19.56;68.13;94846.19;1614873;87;21076;-60
2021/07/22 07:40:20;;;;;;;12.85;5.50;;;;;;;19.66;68.59;94846.10;1609923;87;21125;-62
2021/07/22 07:42:48;;;;;;;8.00;4.92;;;;;;;19.77;68.05;94846.76;1625876;86;21115;-62
2021/07/22 07:45:14;;;;;;;12.15;5.90;;;;;;;19.86;66.66;94851.48;1585789;89;21535;-61
2021/07/22 07:47:41;;;;;;;13.95;5.70;;;;;;;19.91;65.88;94851.37;1610668;87;21139;-60
2021/07/22 07:50:09;;;;;;;13.05;9.93;;;;;;;19.97;65.24;94848.72;1602201;87;21033;-59
2021/07/22 07:52:36;;;;;;;5.90;4.50;;;;;;;20.07;64.98;94852.81;1612076;87;21053;-56
2021/07/22 07:55:05;;;;;;;17.10;5.60;;;;;;;20.13;61.42;94849.37;1614902;85;21085;-64
2021/07/22 07:57:32;;;;;;;7.03;4.37;;;;;;;20.13;61.98;94852.17;1634414;85;21136;-61
2021/07/22 07:59:59;;;;;;;9.38;5.30;;;;;;;20.23;61.17;94847.87;1580270;89;21812;-59
2021/07/22 08:02:26;;;;;;;7.80;4.65;;;;;;;20.38;60.66;94853.98;1615348;87;21892;-62
2021/07/22 08:04:57;;;;;;;8.55;4.37;;;;;;;20.54;59.06;94844.84;1594203;87;21042;-58
2021/07/22 08:07:21;;;;;;;10.40;4.65;;;;;;;20.66;59.50;94838.73;1610972;87;21094;-64
2021/07/22 08:09:48;;;;;;;7.45;3.77;;;;;;;20.79;59.77;94838.20;1612572;87;21555;-63
2021/07/22 08:12:16;;;;;;;5.53;4.08;;;;;;;21.01;60.02;94838.17;1622765;86;21117;-53
2021/07/22 08:14:44;;;;;;;8.30;4.47;;;;;;;21.20;59.43;94839.91;1636870;87;21124;-56
2021/07/22 08:17:15;;;;;;;10.50;4.78;;;;;;;21.27;58.22;94842.83;1594964;87;21063;-58
2021/07/22 08:19:42;;;;;;;13.65;4.58;;;;;;;21.22;58.76;94843.58;1625044;86;21115;-62
2021/07/22 08:22:13;;;;;;;17.12;5.28;;;;;;;21.15;59.51;94842.72;1620608;87;21009;-57
2021/07/22 08:24:40;;;;;;;22.90;6.70;;;;;;;21.09;60.16;94854.58;1628318;86;21156;-61
2021/07/22 08:27:07;;;;;;;10.50;5.20;;;;;;;20.98;59.93;94851.17;1621560;86;21132;-58
2021/07/22 08:29:39;;;;;;;11.65;4.85;;;;;;;20.85;59.03;94855.75;1603242;86;21321;-59
2021/07/22 08:32:08;;;;;;;12.68;4.65;;;;;;;20.74;59.99;94861.34;1630092;87;21082;-62
2021/07/22 08:34:36;;;;;;;23.87;5.53;;;;;;;20.59;60.36;94857.40;1609604;87;21125;-58
2021/07/22 08:37:09;;;;;;;7.78;5.12;;;;;;;20.49;61.23;94865.16;1615224;87;21145;-67
2021/07/22 08:39:42;;;;;;;;;;;;;;;20.41;61.69;94867.69;1615219;87;21137;-57
2021/07/22 08:42:10;;;;;;;5.15;4.10;;;;;;;20.37;61.90;94869.23;1616359;87;20215;-59
2021/07/22 08:44:39;;;;;;;9.23;4.10;;;;;;;20.30;61.83;94864.13;1615322;87;21113;-56
2021/07/22 08:47:06;;;;;;;6.72;4.25;;;;;;;20.28;61.22;94866.05;1616672;87;21171;-58
2021/07/22 08:49:34;;;;;;;13.13;5.33;;;;;;;20.26;61.09;94874.19;1620374;86;21151;-58
2021/07/22 08:52:03;;;;;;;23.35;5.80;;;;;;;20.22;61.23;94872.91;1625478;87;21049;-57
2021/07/22 08:54:31;;;;;;;9.80;4.92;;;;;;;20.23;61.61;94879.36;1634838;85;21114;-55
2021/07/22 08:56:59;;;;;;;10.72;4.70;;;;;;;20.28;61.09;94880.02;1609349;87;21046;-68
2021/07/22 08:59:26;;;;;;;6.42;4.15;;;;;;;20.38;60.20;94877.75;1607364;87;21088;-72
2021/07/22 09:01:53;;;;;;;6.37;3.92;;;;;;;20.47;59.56;94878.87;1625041;86;21179;-62
2021/07/22 09:04:20;;;;;;;6.72;3.87;;;;;;;20.60;59.78;94880.54;1614286;87;21904;-65
2021/07/22 09:06:47;;;;;;;8.45;5.25;;;;;;;20.74;59.39;94873.94;1611910;87;21132;-63
2021/07/22 09:09:17;;;;;;;6.62;4.72;;;;;;;20.84;59.95;94865.42;1629211;87;21120;-58
2021/07/22 09:12:00;;;;;;;5.45;3.62;;;;;;;21.01;59.77;94868.95;1617151;86;21693;-57
2021/07/22 09:14:31;;;;;;;7.40;3.90;;;;;;;21.14;58.53;94872.73;1616657;87;21196;-62
2021/07/22 09:17:00;;;;;;;10.63;4.67;;;;;;;21.24;57.99;94869.80;1620842;87;21035;-62
2021/07/22 09:19:32;;;;;;;12.93;4.22;;;;;;;21.34;57.50;94872.45;1620483;87;21120;-64
2021/07/22 09:22:00;;;;;;;10.30;6.17;;;;;;;21.40;57.35;94875.98;1628345;87;21334;-64
2021/07/22 09:24:27;;;;;;;10.45;4.87;;;;;;;21.52;57.65;94880.27;1603375;87;21095;-71
2021/07/22 09:26:56;;;;;;;10.85;4.10;;;;;;;21.59;57.64;94866.34;1622949;86;21154;-66
2021/07/22 09:29:24;;;;;;;10.58;4.67;;;;;;;21.58;56.88;94874.00;1597009;87;21125;-63
2021/07/22 09:31:52;;;;;;;8.03;4.15;;;;;;;21.51;57.27;94872.37;1583835;89;21519;-66
2021/07/22 09:34:26;;;;;;;13.22;4.42;;;;;;;21.51;57.77;94875.18;1538728;90;21190;-66
2021/07/22 09:36:53;;;;;;;14.58;4.45;;;;;;;21.54;57.76;94872.12;1554982;89;20995;-66
2021/07/22 09:39:24;;;;;;;11.25;5.97;;;;;;;21.65;58.04;94869.94;1578392;89;21250;-63
2021/07/22 09:42:06;;;;;;;16.15;12.45;;;;;;;21.92;59.11;94870.43;1560557;90;21129;-61
2021/07/22 09:44:37;;;;;;;21.10;15.13;;;;;;;22.24;57.50;94868.83;1580980;89;22554;-61
2021/07/22 09:47:08;;;;;;;9.35;5.55;;;;;;;22.42;55.09;94864.02;1624682;86;21249;-64
2021/07/22 09:49:39;;;;;;;7.30;5.12;;;;;;;22.46;53.12;94867.95;1613584;88;21001;-60
2021/07/22 09:52:12;;;;;;;8.15;4.87;;;;;;;22.47;53.73;94863.87;1599891;88;23161;-63
2021/07/22 09:54:39;;;;;;;6.17;4.10;;;;;;;22.45;53.42;94868.58;1617955;88;22114;-55
2021/07/22 09:57:19;;;;;;;11.35;4.35;;;;;;;22.40;53.62;94875.00;1627614;88;21139;-62
2021/07/22 09:59:47;;;;;;;6.95;3.87;;;;;;;22.33;55.08;94882.52;1630397;86;21081;-56
2021/07/22 10:02:24;;;;;;;5.97;3.35;;;;;;;22.30;55.10;94880.76;1631707;87;21193;-56
2021/07/22 10:05:01;;;;;;;8.48;4.05;;;;;;;22.19;54.89;94873.84;1605411;88;21145;-55
2021/07/22 10:07:28;;;;;;;7.78;4.17;;;;;;;22.10;54.59;94870.59;1612871;86;22367;-55
2021/07/22 10:09:58;;;;;;;4.75;3.12;;;;;;;22.05;54.63;94872.77;1605564;87;21604;-62
2021/07/22 10:12:26;;;;;;;5.85;3.52;;;;;;;22.06;54.64;94873.66;1616092;86;21021;-55
2021/07/22 10:14:55;;;;;;;4.70;3.65;;;;;;;22.12;55.17;94870.83;1613870;87;21123;-63
2021/07/22 10:17:35;;;;;;;5.75;3.47;;;;;;;22.23;54.08;94868.71;1611880;87;21163;-62
2021/07/22 10:20:08;;;;;;;4.35;3.35;;;;;;;22.39;54.65;94862.89;1584858;88;21035;-60
2021/07/22 10:22:35;;;;;;;7.12;4.00;;;;;;;22.50;53.12;94861.41;1608384;87;21002;-56
2021/07/22 10:25:02;;;;;;;8.85;4.03;;;;;;;22.62;53.26;94863.61;1609894;86;21191;-56
2021/07/22 10:27:30;;;;;;;6.08;3.60;;;;;;;22.77;52.67;94863.99;1613115;87;21369;-59
2021/07/22 10:30:03;;;;;;;5.97;3.85;;;;;;;22.85;53.13;94856.51;1594712;88;21191;-56
2021/07/22 10:32:27;;;;;;;5.62;3.65;;;;;;;22.91;52.46;94850.22;1599916;88;21094;-58
2021/07/22 10:34:54;;;;;;;8.03;4.70;;;;;;;23.18;52.78;94856.87;1618317;88;21109;-54
2021/07/22 10:37:21;;;;;;;6.87;3.67;;;;;;;23.40;53.50;94855.22;1619078;88;21041;-62
2021/07/22 10:40:09;;;;;;;7.90;3.70;;;;;;;23.64;51.76;94850.34;1620461;87;21069;-59
2021/07/22 10:42:47;;;;;;;13.62;5.35;;;;;;;23.79;50.37;94849.23;1614326;88;21166;-55
2021/07/22 10:45:23;;;;;;;17.85;4.45;;;;;;;23.86;49.56;94850.71;1617034;88;21093;-57
2021/07/22 10:48:09;;;;;;;10.15;4.60;;;;;;;23.77;48.40;94846.85;1615858;88;21536;-55
2021/07/22 10:50:56;;;;;;;8.98;5.28;;;;;;;23.71;48.33;94855.34;1618437;87;21191;-54
2021/07/22 10:53:54;;;;;;;5.85;3.22;;;;;;;23.56;50.07;94847.99;1608846;88;21041;-59
2021/07/22 10:56:26;;;;;;;6.05;4.08;;;;;;;23.46;49.21;94846.08;1603394;87;21160;-56
2021/07/22 10:58:58;;;;;;;7.12;3.37;;;;;;;23.26;50.33;94854.36;1616855;87;21504;-54
2021/07/22 11:01:50;;;;;;;7.45;3.00;;;;;;;23.09;50.45;94859.36;1614471;87;21121;-59
2021/07/22 11:04:25;;;;;;;7.87;4.30;;;;;;;22.80;51.47;94861.53;1618381;88;21029;-60
2021/07/22 11:07:04;;;;;;;7.10;3.50;;;;;;;22.44;53.19;94860.05;1583265;89;21107;-56
2021/07/22 11:09:51;;;;;;;8.15;4.28;;;;;;;22.15;53.66;94861.38;1631377;86;21164;-60
2021/07/22 11:12:44;;;;;;;9.88;4.08;;;;;;;21.97;54.84;94859.82;1607222;87;21002;-60
2021/07/22 11:15:15;;;;;;;5.87;3.90;;;;;;;21.80;55.58;94852.17;1622314;87;21077;-60
2021/07/22 11:17:44;;;;;;;8.48;3.62;;;;;;;21.70;56.29;94859.34;1604636;85;21213;-65
2021/07/22 11:20:30;;;;;;;3.83;3.47;;;;;;;21.69;55.84;94858.56;1600504;86;21140;-59
2021/07/22 11:22:56;;;;;;;5.10;3.42;;;;;;;21.73;56.57;94853.48;1615400;87;21309;-61
2021/07/22 11:25:23;;;;;;;5.92;3.35;;;;;;;21.79;58.11;94852.80;1628826;87;21000;-56
2021/07/22 11:27:50;;;;;;;5.35;3.52;;;;;;;21.87;57.15;94850.22;1628312;86;21004;-65
2021/07/22 11:30:19;;;;;;;7.78;6.33;;;;;;;21.90;56.78;94847.15;1629045;86;21958;-55
2021/07/22 11:32:46;;;;;;;7.15;4.00;;;;;;;21.96;55.90;94846.47;1613945;87;21079;-59
2021/07/22 11:35:13;;;;;;;9.50;3.52;;;;;;;22.06;55.81;94856.07;1600485;88;21124;-60
2021/07/22 11:37:39;;;;;;;6.22;3.52;;;;;;;22.12;53.38;94852.61;1630068;86;21079;-58
2021/07/22 11:40:11;;;;;;;14.23;7.83;;;;;;;22.15;53.67;94852.31;1633197;87;21061;-60